createdAt,value
2018-06-05T05:51:25.056Z,88.01
2018-06-05T05:52:13.127Z,88.20
2018-06-05T05:54:39.549Z,87.62
2018-06-05T05:55:28.554Z,88.25
2018-06-05T05:57:23.538Z,87.82
2018-06-05T06:00:26.999Z,88.20
2018-06-05T06:01:27.851Z,88.01
2018-06-05T06:03:29.445Z,88.20
2018-06-05T06:04:28.947Z,88.01
2018-06-05T06:07:27.976Z,88.39
2018-06-05T06:09:44.947Z,88.30
2018-06-05T06:14:17.962Z,88.68
2018-06-05T06:22:11.824Z,88.24
2018-06-05T06:23:14.728Z,87.76
2018-06-05T06:34:08.404Z,88.24
2018-06-05T06:35:09.371Z,87.96
2018-06-05T06:37:09.930Z,87.96
2018-06-05T06:40:31.310Z,87.67
2018-06-05T06:41:44.771Z,87.67
2018-06-05T06:43:36.637Z,87.96
2018-06-05T06:44:34.792Z,87.57
2018-06-05T06:46:38.985Z,87.76
2018-06-05T06:47:36.251Z,87.96
2018-06-05T06:49:52.383Z,87.96
2018-06-05T06:50:36.983Z,87.38
2018-06-05T06:52:39.812Z,87.96
2018-06-05T06:55:25.928Z,87.96
2018-06-05T07:51:40.019Z,86.74
2018-06-05T07:52:37.144Z,86.55
2018-06-05T07:54:21.006Z,86.65
2018-06-05T07:56:53.854Z,86.83
2018-06-05T07:58:08.166Z,86.30
2018-06-05T08:17:09.005Z,85.05
2018-06-05T08:21:46.159Z,85.14
2018-06-05T08:38:36.085Z,85.82
2018-06-05T08:42:41.037Z,86.49
2018-06-05T09:04:53.637Z,85.19
2018-06-05T09:18:04.875Z,85.42
2018-06-05T09:19:03.838Z,85.03
2018-06-05T09:39:33.609Z,83.20
2018-06-05T09:43:24.687Z,83.15
2018-06-05T09:44:00.918Z,83.59
2018-06-05T09:48:20.758Z,83.15
2018-06-05T09:48:51.251Z,83.11
2018-06-05T09:50:04.245Z,83.44
2018-06-05T09:54:08.980Z,83.53
2018-06-05T09:55:11.574Z,83.63
2018-06-05T09:57:06.896Z,83.44
2018-06-05T09:57:59.735Z,82.32
2018-06-05T10:08:16.610Z,82.76
2018-06-05T10:16:05.369Z,83.39
2018-06-05T10:17:04.856Z,81.45
2018-06-05T10:19:04.900Z,81.74
2018-06-05T10:20:03.402Z,81.26
2018-06-05T10:21:59.996Z,81.74
2018-06-05T10:22:59.997Z,81.65
2018-06-05T10:25:02.972Z,81.84
2018-06-05T10:25:56.468Z,81.98
2018-06-05T10:27:56.488Z,81.98
2018-06-05T10:28:51.942Z,81.78
2018-06-05T10:30:47.895Z,82.23
2018-06-05T10:31:48.892Z,82.23
2018-06-05T10:33:44.403Z,82.71
2018-06-05T10:34:44.936Z,82.17
2018-06-05T10:36:39.910Z,82.03
2018-06-05T10:37:39.896Z,82.71
2018-06-05T10:39:37.897Z,82.13
2018-06-05T10:40:39.848Z,82.32
2018-06-05T10:42:47.860Z,82.42
2018-06-05T10:43:33.786Z,82.17
2018-06-05T10:45:29.740Z,81.68
2018-06-05T10:46:29.747Z,82.32
2018-06-05T10:48:28.719Z,82.61
2018-06-05T10:49:27.896Z,82.51
2018-06-05T10:51:26.881Z,83.29
2018-06-05T10:52:26.860Z,82.90
2018-06-05T10:54:34.533Z,83.09
2018-06-05T10:55:24.229Z,82.61
2018-06-05T10:57:20.131Z,82.32
2018-06-05T10:58:20.155Z,82.36
2018-06-05T11:00:30.170Z,81.88
2018-06-05T11:01:16.125Z,81.40
2018-06-05T11:03:14.086Z,81.98
2018-06-05T11:04:15.111Z,81.44
2018-06-05T11:06:12.338Z,80.18
2018-06-05T11:07:12.377Z,80.76
2018-06-05T11:09:12.238Z,79.22
2018-06-05T11:10:10.402Z,79.50
2018-06-05T11:12:08.332Z,80.57
2018-06-05T11:13:08.361Z,81.24
2018-06-05T11:15:07.859Z,79.60
2018-06-05T11:16:06.295Z,80.18
2018-06-05T11:18:04.347Z,80.66
2018-06-05T11:19:04.282Z,80.66
2018-06-05T11:21:05.755Z,79.66
2018-06-05T11:22:04.826Z,80.49
2018-06-05T11:24:05.277Z,81.26
2018-06-05T11:25:05.296Z,81.35
2018-06-05T11:27:03.238Z,81.20
2018-06-05T11:28:03.222Z,80.91
2018-06-05T11:30:01.444Z,82.75
2018-06-05T11:31:02.233Z,82.46
2018-06-05T11:32:59.839Z,81.35
2018-06-05T11:33:59.501Z,81.59
2018-06-05T11:36:00.007Z,81.84
2018-06-05T11:37:00.014Z,82.42
2018-06-05T11:39:00.495Z,81.55
2018-06-05T11:40:00.497Z,82.13
2018-06-05T11:42:00.957Z,81.65
2018-06-05T11:42:58.499Z,82.23
2018-06-05T11:44:56.941Z,81.78
2018-06-05T11:45:56.597Z,81.07
2018-06-05T11:47:54.547Z,81.90
2018-06-05T11:48:55.550Z,81.41
2018-06-05T11:50:50.516Z,82.13
2018-06-05T11:51:50.561Z,82.32
2018-06-05T11:53:48.616Z,82.07
2018-06-05T11:54:46.510Z,81.20
2018-06-05T11:56:47.046Z,82.42
2018-06-05T11:57:44.705Z,81.49
2018-06-05T11:59:43.603Z,81.59
2018-06-05T12:00:44.687Z,81.78
2018-06-05T12:02:40.802Z,81.44
2018-06-05T12:03:42.706Z,81.24
2018-06-05T12:05:36.624Z,81.78
2018-06-05T12:06:36.604Z,81.78
2018-06-05T12:08:35.560Z,81.65
2018-06-05T12:09:32.593Z,81.84
2018-06-05T12:11:30.548Z,82.42
2018-06-05T12:12:30.587Z,82.61
2018-06-05T12:14:32.076Z,82.42
2018-06-05T12:15:32.028Z,82.51
2018-06-05T12:17:33.518Z,82.86
2018-06-05T12:18:32.488Z,82.23
2018-06-05T12:20:31.952Z,83.09
2018-06-05T12:21:30.492Z,82.71
2018-06-05T12:23:30.952Z,82.46
2018-06-05T12:24:30.963Z,82.42
2018-06-05T12:26:29.469Z,82.42
2018-06-05T12:27:28.951Z,82.61
2018-06-05T12:29:27.076Z,82.46
2018-06-05T12:30:27.901Z,82.84
2018-06-05T12:32:25.223Z,82.46
2018-06-05T12:33:25.181Z,81.88
2018-06-05T12:35:24.213Z,82.94
2018-06-05T12:36:23.674Z,82.94
2018-06-05T12:38:23.708Z,82.94
2018-06-05T12:39:23.648Z,83.23
2018-06-05T12:41:24.635Z,82.26
2018-06-05T12:42:24.107Z,82.46
2018-06-05T12:44:24.574Z,82.60
2018-06-05T12:45:25.477Z,81.34
2018-06-05T12:47:26.078Z,82.69
2018-06-05T12:48:25.056Z,82.79
2018-06-05T12:50:21.100Z,82.50
2018-06-05T12:51:22.110Z,81.92
2018-06-05T12:53:17.516Z,82.50
2018-06-05T12:54:17.082Z,81.92
2018-06-05T12:56:19.019Z,82.46
2018-06-05T12:57:18.414Z,82.26
2018-06-05T12:59:13.506Z,81.78
2018-06-05T13:00:13.476Z,81.78
2018-06-05T13:02:11.602Z,82.26
2018-06-05T13:03:11.611Z,82.40
2018-06-05T13:05:10.072Z,81.88
2018-06-05T13:06:10.599Z,81.59
2018-06-05T13:08:10.199Z,82.46
2018-06-05T13:09:10.245Z,82.17
2018-06-05T13:11:09.239Z,82.17
2018-06-05T13:12:09.231Z,82.65
2018-06-05T13:14:08.786Z,82.46
2018-06-05T13:15:08.844Z,82.36
2018-06-05T13:17:09.816Z,82.75
2018-06-05T13:18:09.300Z,82.56
2018-06-05T13:20:09.787Z,82.75
2018-06-05T13:21:09.733Z,82.65
2018-06-05T13:23:07.793Z,81.98
2018-06-05T13:24:07.716Z,82.81
2018-06-05T13:26:05.678Z,82.46
2018-06-05T13:27:05.678Z,82.65
2018-06-05T13:29:06.634Z,82.23
2018-06-05T13:30:06.147Z,83.14
2018-06-05T13:32:07.098Z,82.26
2018-06-05T13:33:07.131Z,82.65
2018-06-05T13:35:07.097Z,82.50
2018-06-05T13:36:08.082Z,82.50
2018-06-05T13:38:10.050Z,81.82
2018-06-05T13:39:07.599Z,81.73
2018-06-05T13:41:08.040Z,82.26
2018-06-05T13:42:08.014Z,82.26
2018-06-05T13:44:04.973Z,81.88
2018-06-05T13:45:04.959Z,81.68
2018-06-05T13:47:03.217Z,82.36
2018-06-05T13:48:03.931Z,81.30
2018-06-05T13:50:02.101Z,82.07
2018-06-05T13:51:02.087Z,82.46
2018-06-05T13:53:02.582Z,82.98
2018-06-05T13:54:03.102Z,81.92
2018-06-05T13:55:59.563Z,81.34
2018-06-05T13:56:59.550Z,81.63
2018-06-05T13:58:58.560Z,80.57
2018-06-05T13:59:58.500Z,81.24
2018-06-05T14:01:58.045Z,81.11
2018-06-05T14:02:57.948Z,80.82
2018-06-05T14:04:58.400Z,81.05
2018-06-05T14:05:58.429Z,81.34
2018-06-05T14:07:54.415Z,81.24
2018-06-05T14:08:54.378Z,81.82
2018-06-05T14:10:54.877Z,81.53
2018-06-05T14:11:54.835Z,81.92
2018-06-05T14:13:57.324Z,81.92
2018-06-05T14:14:56.257Z,81.59
2018-06-05T14:16:58.174Z,81.88
2018-06-05T14:17:57.975Z,81.01
2018-06-05T14:20:06.925Z,81.92
2018-06-05T14:20:59.406Z,81.34
2018-06-05T14:22:57.892Z,81.78
2018-06-05T14:23:57.531Z,82.17
2018-06-05T14:25:55.528Z,81.82
2018-06-05T14:26:57.028Z,81.98
2018-06-05T14:28:51.513Z,82.50
2018-06-05T14:29:52.472Z,81.53
2018-06-05T14:31:49.447Z,81.82
2018-06-05T14:32:49.396Z,82.02
2018-06-05T14:34:48.411Z,81.24
2018-06-05T14:35:47.359Z,81.63
2018-06-05T14:37:46.827Z,81.82
2018-06-05T14:38:45.548Z,81.63
2018-06-05T14:40:42.544Z,81.34
2018-06-05T14:41:42.994Z,81.63
2018-06-05T14:43:40.979Z,82.02
2018-06-05T14:44:41.038Z,81.63
2018-06-05T14:46:41.459Z,81.34
2018-06-05T14:47:41.841Z,82.11
2018-06-05T14:49:37.392Z,81.82
2018-06-05T14:50:37.452Z,81.92
2018-06-05T14:52:34.824Z,81.63
2018-06-05T14:53:34.812Z,81.63
2018-06-05T14:55:32.950Z,81.15
2018-06-05T14:56:34.776Z,81.73
2018-06-05T14:58:31.438Z,81.82
2018-06-05T14:59:30.958Z,82.21
2018-06-05T15:01:29.906Z,82.40
2018-06-05T15:02:30.917Z,81.92
2018-06-05T15:04:27.112Z,81.92
2018-06-05T15:05:27.126Z,81.87
2018-06-05T15:07:23.124Z,81.87
2018-06-05T15:08:24.082Z,81.29
2018-06-05T15:10:23.612Z,80.38
2018-06-05T15:11:25.592Z,81.24
2018-06-05T15:13:20.570Z,81.63
2018-06-05T15:14:20.068Z,81.44
2018-06-05T15:16:26.308Z,80.61
2018-06-05T15:17:16.547Z,80.80
2018-06-05T15:19:12.026Z,80.95
2018-06-05T15:20:12.013Z,81.05
2018-06-05T15:22:07.434Z,81.34
2018-06-05T15:23:07.970Z,81.44
2018-06-05T15:25:03.412Z,82.11
2018-06-05T15:26:03.388Z,81.96
2018-06-05T15:27:59.384Z,81.29
2018-06-05T15:28:59.341Z,81.96
2018-06-05T15:30:56.329Z,80.12
2018-06-05T15:31:55.375Z,80.61
2018-06-05T15:33:53.919Z,80.03
2018-06-05T15:34:54.328Z,80.66
2018-06-05T15:36:51.533Z,80.66
2018-06-05T15:37:52.269Z,81.92
2018-06-05T15:39:47.472Z,81.24
2018-06-05T15:40:47.489Z,82.11
2018-06-05T15:42:46.955Z,82.02
2018-06-05T15:43:45.526Z,81.92
2018-06-05T15:45:42.412Z,81.29
2018-06-05T15:46:41.599Z,81.53
2018-06-05T15:48:37.541Z,81.15
2018-06-05T15:49:38.077Z,81.63
2018-06-05T15:51:34.035Z,81.96
2018-06-05T15:52:34.016Z,81.29
2018-06-05T15:54:29.977Z,81.29
2018-06-05T15:55:29.506Z,81.19
2018-06-05T15:57:27.419Z,81.09
2018-06-05T15:58:27.440Z,80.90
2018-06-05T16:00:25.410Z,80.18
2018-06-05T16:01:25.675Z,80.18
2018-06-05T16:03:24.381Z,80.66
2018-06-05T16:04:24.383Z,80.57
2018-06-05T16:06:23.378Z,81.63
2018-06-05T16:07:22.551Z,81.44
2018-06-05T16:09:20.364Z,81.82
2018-06-05T16:10:20.366Z,81.92
2018-06-05T16:12:16.403Z,81.38
2018-06-05T16:13:16.326Z,80.71
2018-06-05T16:15:13.281Z,79.64
2018-06-05T16:16:13.776Z,80.38
2018-06-05T16:18:08.303Z,79.99
2018-06-05T16:19:09.231Z,79.80
2018-06-05T16:21:04.266Z,80.76
2018-06-05T16:22:04.208Z,81.24
2018-06-05T16:24:00.240Z,80.57
2018-06-05T16:24:58.861Z,80.95
2018-06-05T16:26:54.321Z,80.76
2018-06-05T16:27:53.608Z,80.76
2018-06-05T16:29:49.610Z,79.99
2018-06-05T16:30:50.573Z,80.22
2018-06-05T16:32:44.567Z,79.93
2018-06-05T16:33:44.701Z,80.03
2018-06-05T16:35:41.483Z,79.83
2018-06-05T16:36:40.024Z,79.64
2018-06-05T16:38:35.974Z,79.35
2018-06-05T16:39:36.478Z,78.48
2018-06-05T16:41:34.469Z,77.80
2018-06-05T16:42:34.159Z,77.17
2018-06-05T16:44:30.089Z,77.17
2018-06-05T16:45:30.090Z,76.62
2018-06-05T16:47:31.790Z,75.75
2018-06-05T16:48:30.754Z,74.82
2018-06-05T16:50:28.721Z,72.15
2018-06-05T16:51:28.695Z,71.18
2018-06-05T16:53:29.181Z,68.70
2018-06-05T16:54:29.186Z,68.60
2018-06-05T16:56:30.649Z,66.63
2018-06-05T16:57:31.660Z,65.66
2018-06-05T16:59:28.637Z,68.70
2018-06-05T17:00:28.656Z,70.86
2018-06-05T17:02:24.614Z,73.04
2018-06-05T17:03:25.140Z,74.65
2018-06-05T17:05:20.559Z,76.64
2018-06-05T17:06:20.546Z,77.13
2018-06-05T17:08:17.024Z,77.67
2018-06-05T17:09:16.494Z,78.34
2018-06-05T17:11:18.983Z,78.54
2018-06-05T17:12:16.999Z,79.02
2018-06-05T17:14:14.935Z,78.44
2018-06-05T17:15:14.994Z,78.54
2018-06-05T17:17:13.488Z,79.22
2018-06-05T17:18:13.104Z,79.41
2018-06-05T17:20:13.067Z,79.60
2018-06-05T17:21:12.072Z,79.12
2018-06-05T17:23:09.537Z,79.47
2018-06-05T17:24:10.046Z,79.85
2018-06-05T17:26:08.665Z,80.62
2018-06-05T17:27:07.688Z,80.05
2018-06-05T17:29:05.143Z,80.62
2018-06-05T17:30:05.635Z,80.72
2018-06-05T17:32:04.621Z,80.14
2018-06-05T17:33:03.241Z,80.53
2018-06-05T17:35:01.729Z,80.49
2018-06-05T17:36:02.218Z,81.01
2018-06-05T17:37:59.417Z,80.82
2018-06-05T17:38:59.353Z,81.01
2018-06-05T17:40:56.458Z,80.62
2018-06-05T17:41:56.371Z,80.33
2018-06-05T17:43:55.291Z,80.53
2018-06-05T17:44:54.290Z,81.40
2018-06-05T17:46:54.755Z,80.43
2018-06-05T17:47:55.242Z,80.53
2018-06-05T17:49:52.813Z,80.53
2018-06-05T17:50:51.745Z,81.11
2018-06-05T17:52:48.255Z,80.72
2018-06-05T17:53:48.699Z,81.26
2018-06-05T17:55:47.188Z,80.97
2018-06-05T17:56:46.710Z,81.16
2018-06-05T17:58:44.829Z,80.78
2018-06-05T17:59:44.832Z,81.74
2018-06-05T18:01:42.978Z,80.87
2018-06-05T18:02:41.028Z,81.26
2018-06-05T18:04:36.988Z,80.97
2018-06-05T18:05:37.014Z,80.97
2018-06-05T18:07:33.007Z,81.26
2018-06-05T18:08:32.951Z,80.68
2018-06-05T18:10:29.937Z,81.84
2018-06-05T18:11:29.986Z,81.70
2018-06-05T18:13:25.946Z,80.74
2018-06-05T18:14:24.968Z,81.70
2018-06-05T18:16:22.943Z,82.13
2018-06-05T18:17:23.537Z,81.22
2018-06-05T18:19:22.238Z,81.55
2018-06-05T18:20:21.713Z,79.75
2018-06-05T18:22:21.969Z,79.89
2018-06-05T18:23:21.487Z,79.37
2018-06-05T18:25:19.489Z,80.20
2018-06-05T18:26:19.463Z,80.49
2018-06-05T18:28:19.953Z,81.55
2018-06-05T18:29:19.937Z,80.83
2018-06-05T18:31:20.911Z,81.02
2018-06-05T18:32:20.568Z,81.60
2018-06-05T18:34:18.885Z,81.70
2018-06-05T18:35:18.931Z,82.09
2018-06-05T18:37:18.971Z,82.18
2018-06-05T18:38:19.932Z,81.80
2018-06-05T18:40:17.853Z,82.48
2018-06-05T18:41:17.837Z,81.32
2018-06-05T18:43:18.986Z,82.28
2018-06-05T18:44:18.331Z,82.38
2018-06-05T18:46:20.352Z,81.70
2018-06-05T18:47:18.804Z,81.51
2018-06-05T18:49:15.337Z,82.43
2018-06-05T18:50:14.761Z,82.14
2018-06-05T18:52:15.237Z,82.34
2018-06-05T18:53:15.216Z,82.53
2018-06-05T18:55:13.727Z,82.43
2018-06-05T18:56:15.221Z,83.01
2018-06-05T18:58:14.485Z,82.92
2018-06-05T18:59:15.305Z,82.82
2018-06-05T19:01:15.788Z,83.40
2018-06-05T19:02:15.280Z,83.50
2018-06-05T19:04:15.254Z,83.55
2018-06-05T19:05:14.762Z,83.64
2018-06-05T19:07:13.006Z,83.69
2018-06-05T19:08:12.920Z,83.64
2018-06-05T19:10:13.898Z,83.64
2018-06-05T19:11:13.519Z,83.64
2018-06-05T19:13:15.376Z,83.84
2018-06-05T19:14:14.345Z,83.94
2018-06-05T19:16:12.177Z,83.84
2018-06-05T19:17:13.032Z,83.94
2018-06-05T19:19:13.173Z,83.94
2018-06-05T19:20:13.353Z,83.84
2018-06-05T19:22:13.788Z,84.42
2018-06-05T19:23:13.212Z,84.90
2018-06-05T19:25:15.193Z,84.22
2018-06-05T19:26:14.602Z,84.80
2018-06-05T19:28:14.651Z,84.99
2018-06-05T19:29:14.112Z,84.90
2018-06-05T19:31:15.983Z,84.80
2018-06-05T19:32:14.496Z,85.09
2018-06-05T19:34:15.493Z,85.09
2018-06-05T19:35:14.944Z,85.09
2018-06-05T19:37:15.445Z,85.47
2018-06-05T19:38:15.392Z,85.77
2018-06-05T19:40:16.032Z,85.72
2018-06-05T19:41:16.887Z,85.53
2018-06-05T19:43:16.897Z,85.72
2018-06-05T19:44:16.477Z,85.43
2018-06-05T19:46:17.327Z,85.91
2018-06-05T19:47:17.373Z,86.78
2018-06-05T19:49:14.984Z,86.40
2018-06-05T19:50:15.789Z,86.88
2018-06-05T19:52:15.388Z,85.91
2018-06-05T19:53:15.937Z,86.11
2018-06-05T19:55:12.889Z,86.30
2018-06-05T19:56:13.890Z,86.26
2018-06-05T19:58:13.833Z,86.55
2018-06-05T19:59:13.369Z,86.78
2018-06-05T20:01:12.272Z,86.21
2018-06-05T20:02:10.935Z,86.78
2018-06-05T20:04:11.460Z,86.83
2018-06-05T20:05:11.418Z,86.07
2018-06-05T20:07:11.382Z,87.12
2018-06-05T20:08:09.537Z,86.65
2018-06-05T20:10:09.991Z,86.83
2018-06-05T20:11:11.490Z,86.74
2018-06-05T20:13:11.505Z,86.55
2018-06-05T20:14:10.480Z,86.35
2018-06-05T20:16:11.905Z,86.45
2018-06-05T20:17:10.957Z,86.65
2018-06-05T20:19:11.396Z,86.83
2018-06-05T20:20:12.496Z,86.65
2018-06-05T20:22:09.877Z,86.55
2018-06-05T20:23:09.861Z,86.45
2018-06-05T20:25:09.310Z,86.83
2018-06-05T20:26:07.318Z,86.65
2018-06-05T20:28:07.810Z,86.74
2018-06-05T20:29:07.792Z,86.26
2018-06-05T20:31:08.268Z,86.83
2018-06-05T20:32:08.220Z,87.18
2018-06-05T20:34:04.240Z,86.99
2018-06-05T20:35:04.166Z,87.66
2018-06-05T20:37:04.690Z,87.56
2018-06-05T20:38:04.660Z,87.27
2018-06-05T20:40:03.606Z,87.37
2018-06-05T20:41:03.202Z,86.99
2018-06-05T20:43:07.087Z,87.56
2018-06-05T20:44:06.875Z,87.66
2018-06-05T20:46:08.253Z,87.56
2018-06-05T20:47:08.245Z,87.76
2018-06-05T20:49:09.720Z,88.24
2018-06-05T20:50:08.732Z,88.04
2018-06-05T20:52:08.382Z,88.33
2018-06-05T20:53:08.303Z,88.33
2018-06-05T20:55:09.847Z,88.14
2018-06-05T20:56:08.995Z,88.62
2018-06-05T20:58:09.215Z,88.53
2018-06-05T20:59:09.232Z,88.04
2018-06-05T21:01:12.679Z,88.14
2018-06-05T21:02:11.297Z,88.33
2018-06-05T21:04:10.669Z,88.43
2018-06-05T21:05:10.148Z,88.39
2018-06-05T21:07:11.909Z,88.43
2018-06-05T21:08:11.700Z,88.43
2018-06-05T21:10:08.083Z,88.43
2018-06-05T21:11:07.580Z,88.39
2018-06-05T21:13:04.605Z,89.06
2018-06-05T21:14:03.709Z,89.06
2018-06-05T21:15:59.533Z,88.96
2018-06-05T21:16:59.508Z,89.06
2018-06-05T21:19:00.015Z,89.25
2018-06-05T21:20:00.509Z,89.35
2018-06-05T21:22:00.474Z,88.77
2018-06-05T21:23:00.437Z,89.44
2018-06-05T21:24:59.429Z,89.35
2018-06-05T21:25:58.438Z,89.54
2018-06-05T21:28:02.362Z,89.25
2018-06-05T21:28:58.897Z,89.54
2018-06-05T21:30:57.403Z,89.64
2018-06-05T21:31:57.871Z,89.35
2018-06-05T21:33:56.546Z,90.41
2018-06-05T21:34:55.019Z,89.59
2018-06-05T21:36:55.513Z,89.88
2018-06-05T21:37:55.468Z,89.98
2018-06-05T21:39:53.453Z,89.83
2018-06-05T21:40:54.447Z,89.73
2018-06-05T21:43:04.558Z,89.88
2018-06-05T21:44:04.949Z,89.54
2018-06-05T21:46:02.798Z,90.41
2018-06-05T21:47:05.277Z,89.92
2018-06-05T21:49:00.814Z,90.02
2018-06-05T21:50:03.685Z,90.50
2018-06-05T21:51:59.985Z,89.88
2018-06-05T21:53:00.074Z,90.26
2018-06-05T21:54:57.999Z,90.07
2018-06-05T21:55:57.941Z,90.17
2018-06-05T21:57:57.908Z,90.26
2018-06-05T21:58:56.841Z,90.36
2018-06-05T22:00:54.402Z,90.26
2018-06-05T22:01:54.793Z,90.36
2018-06-05T22:03:52.003Z,90.17
2018-06-05T22:04:52.009Z,90.65
2018-06-05T22:06:51.468Z,90.36
2018-06-05T22:07:49.940Z,90.07
2018-06-05T22:09:48.059Z,91.03
2018-06-05T22:10:47.903Z,90.94
2018-06-05T22:12:44.863Z,90.75
2018-06-05T22:13:44.860Z,90.75
2018-06-05T22:15:39.849Z,90.55
2018-06-05T22:16:40.328Z,90.84
2018-06-05T22:18:37.979Z,90.60
2018-06-05T22:19:38.846Z,90.60
2018-06-05T22:21:36.977Z,90.22
2018-06-05T22:22:35.999Z,90.22
2018-06-05T22:24:34.429Z,90.51
2018-06-05T22:25:33.937Z,90.51
2018-06-05T22:27:32.905Z,91.18
2018-06-05T22:28:32.406Z,91.08
2018-06-05T22:30:31.357Z,90.89
2018-06-05T22:31:30.008Z,90.99
2018-06-05T22:33:29.466Z,90.22
2018-06-05T22:34:28.955Z,90.12
2018-06-05T22:36:26.652Z,90.31
2018-06-05T22:37:27.076Z,90.31
2018-06-05T22:39:25.198Z,90.70
2018-06-05T22:40:24.189Z,90.51
2018-06-05T22:42:21.708Z,90.46
2018-06-05T22:43:20.258Z,89.89
2018-06-05T22:45:16.127Z,90.56
2018-06-05T22:46:16.098Z,89.89
2018-06-05T22:48:15.031Z,89.79
2018-06-05T22:49:15.032Z,89.79
2018-06-05T22:51:13.173Z,89.50
2018-06-05T22:52:12.194Z,89.69
2018-06-05T22:54:10.653Z,89.22
2018-06-05T22:55:10.122Z,89.31
2018-06-05T22:57:09.580Z,89.12
2018-06-05T22:58:08.069Z,89.12
2018-06-05T23:00:06.049Z,89.31
2018-06-05T23:01:06.099Z,89.22
2018-06-05T23:03:04.999Z,89.17
2018-06-05T23:04:03.981Z,89.31
2018-06-05T23:06:02.454Z,88.98
2018-06-05T23:07:01.933Z,88.59
2018-06-05T23:09:00.421Z,88.79
2018-06-05T23:10:00.064Z,88.69
2018-06-05T23:11:58.530Z,88.59
2018-06-05T23:12:57.986Z,88.59
2018-06-05T23:14:55.938Z,88.40
2018-06-05T23:15:55.927Z,88.49
2018-06-05T23:17:55.404Z,88.11
2018-06-05T23:18:54.886Z,88.40
2018-06-05T23:20:52.166Z,88.31
2018-06-05T23:21:52.183Z,88.40
2018-06-05T23:23:50.636Z,88.69
2018-06-05T23:24:50.320Z,88.02
2018-06-05T23:26:49.763Z,87.54
2018-06-05T23:27:48.432Z,87.92
2018-06-05T23:29:46.404Z,87.82
2018-06-05T23:30:46.880Z,87.54
2018-06-05T23:32:44.849Z,87.15
2018-06-05T23:33:44.523Z,87.05
2018-06-05T23:35:42.716Z,87.15
2018-06-05T23:36:42.672Z,86.77
2018-06-05T23:38:39.633Z,86.87
2018-06-05T23:39:38.630Z,86.54
2018-06-05T23:41:36.631Z,86.87
2018-06-05T23:42:37.147Z,86.68
2018-06-05T23:44:35.585Z,86.44
2018-06-05T23:45:34.729Z,86.15
2018-06-05T23:47:32.672Z,86.19
2018-06-05T23:48:32.680Z,86.15
2018-06-05T23:50:31.151Z,86.29
2018-06-05T23:51:30.838Z,86.29
2018-06-05T23:53:26.782Z,85.38
2018-06-05T23:54:26.766Z,85.77
2018-06-05T23:56:23.734Z,85.58
2018-06-05T23:57:23.781Z,85.38
2018-06-05T23:59:18.687Z,85.77
